createdAt,value
2022-09-28T00:11:25.103Z,17.60
2022-09-28T00:15:33.527Z,15.30
2022-09-28T00:19:33.355Z,14.90
2022-09-28T00:35:46.240Z,14.80
2022-09-28T00:39:54.751Z,18.60
2022-09-28T00:44:03.528Z,16.00
2022-09-28T00:47:54.438Z,16.00
2022-09-28T01:08:34.041Z,18.40
2022-09-28T01:59:18.240Z,12.90
2022-09-28T02:11:44.869Z,13.30
2022-09-28T02:16:00.483Z,13.10
2022-09-28T02:24:21.556Z,10.80
2022-09-28T02:45:24.990Z,11.10
2022-09-28T02:49:32.204Z,9.80
2022-09-28T02:54:18.886Z,10.10
2022-09-28T02:58:33.237Z,10.80
2022-09-28T03:02:56.213Z,14.40
2022-09-28T03:07:11.363Z,10.30
2022-09-28T03:11:49.610Z,13.10
2022-09-28T03:16:05.302Z,6.90
2022-09-28T03:20:14.958Z,11.80
2022-09-28T03:36:37.456Z,13.50
2022-09-28T03:40:46.248Z,9.70
2022-09-28T04:01:24.857Z,6.70
2022-09-28T04:05:34.426Z,8.90
2022-09-28T04:17:41.784Z,11.60
2022-09-28T04:21:52.711Z,11.40
2022-09-28T04:42:35.610Z,11.20
2022-09-28T04:50:58.980Z,11.00
2022-09-28T04:55:07.338Z,12.80
2022-09-28T05:11:32.330Z,8.90
2022-09-28T05:15:23.191Z,10.10
2022-09-28T05:19:31.361Z,10.70
2022-09-28T05:23:40.709Z,10.50
2022-09-28T05:44:43.897Z,10.10
2022-09-28T05:48:52.154Z,9.60
2022-09-28T05:53:01.297Z,9.50
2022-09-28T06:25:19.337Z,6.70
2022-09-28T06:29:33.295Z,6.10
2022-09-28T06:46:01.153Z,5.50
2022-09-28T06:50:15.199Z,6.70
2022-09-28T07:14:58.589Z,4.80
2022-09-28T07:23:24.652Z,4.00
2022-09-28T07:44:06.426Z,3.80
2022-09-28T07:48:15.215Z,3.30
2022-09-28T08:09:31.288Z,3.70
2022-09-28T08:13:48.937Z,3.00
2022-09-28T08:18:03.337Z,2.80
2022-09-28T08:22:14.086Z,4.00
2022-09-28T08:26:15.730Z,4.50
2022-09-28T08:50:53.106Z,2.60
2022-09-28T08:55:18.839Z,3.10
2022-09-28T08:59:17.505Z,2.90
2022-09-28T09:03:29.242Z,2.50
2022-09-28T09:08:01.935Z,1.60
2022-09-28T09:12:28.308Z,1.70
2022-09-28T09:17:01.055Z,2.70
2022-09-28T09:21:39.750Z,2.00
2022-09-28T09:25:53.768Z,2.30
2022-09-28T09:30:23.230Z,2.40
2022-09-28T09:34:40.111Z,2.40
2022-09-28T09:38:57.176Z,1.20
2022-09-28T09:43:00.550Z,3.10
2022-09-28T09:47:28.938Z,2.70
2022-09-28T09:51:42.376Z,1.10
2022-09-28T09:56:05.655Z,3.20
2022-09-28T10:00:20.021Z,2.50
2022-09-28T10:04:38.088Z,2.50
2022-09-28T10:08:49.260Z,2.20
2022-09-28T10:29:40.234Z,1.90
2022-09-28T10:33:48.714Z,3.50
2022-09-28T10:37:57.137Z,2.80
2022-09-28T10:42:03.497Z,2.50
2022-09-28T10:46:17.164Z,3.60
2022-09-28T10:50:25.787Z,3.20
2022-09-28T10:54:41.277Z,2.70
2022-09-28T11:24:40.046Z,2.30
2022-09-28T11:28:59.976Z,2.70
2022-09-28T11:32:57.712Z,3.20
2022-09-28T11:36:46.679Z,3.20
2022-09-28T11:49:59.876Z,3.20
2022-09-28T13:16:24.046Z,3.90
2022-09-28T13:20:39.704Z,3.80
2022-09-28T13:24:42.628Z,2.80
2022-09-28T13:28:54.504Z,3.40
2022-09-28T13:37:30.705Z,3.30
2022-09-28T14:23:34.711Z,6.40
2022-09-28T14:27:40.685Z,4.20
2022-09-28T14:31:28.058Z,3.70
2022-09-28T14:35:11.709Z,3.20
2022-09-28T14:38:52.844Z,4.00
2022-09-28T14:43:01.370Z,4.00
2022-09-28T14:47:12.660Z,7.20
2022-09-28T14:51:23.670Z,5.90
2022-09-28T14:55:23.678Z,5.10
2022-09-28T14:59:34.861Z,5.50
2022-09-28T15:03:46.356Z,6.50
2022-09-28T15:08:10.171Z,6.70
2022-09-28T15:40:56.548Z,7.70
2022-09-28T15:45:07.625Z,8.20
2022-09-28T15:48:56.490Z,11.10
2022-09-28T15:53:11.222Z,7.80
2022-09-28T15:57:31.769Z,7.20
2022-09-28T16:01:37.231Z,7.20
2022-09-28T16:06:12.879Z,9.80
2022-09-28T16:10:41.830Z,9.60
2022-09-28T16:14:59.092Z,9.50
2022-09-28T16:19:10.730Z,8.00
2022-09-28T16:23:19.357Z,6.40
2022-09-28T16:52:36.141Z,5.30
2022-09-28T16:56:44.538Z,6.40
2022-09-28T17:00:56.277Z,7.20
2022-09-28T17:13:25.107Z,7.50
2022-09-28T17:17:24.635Z,7.90
2022-09-28T17:41:40.363Z,10.20
2022-09-28T17:45:20.217Z,12.90
2022-09-28T18:12:42.735Z,16.70
2022-09-28T18:16:34.453Z,17.60
2022-09-28T18:33:11.615Z,14.80
2022-09-28T18:37:19.848Z,16.10
2022-09-28T18:41:29.706Z,18.10
2022-09-28T19:02:28.610Z,17.70
2022-09-28T19:06:36.838Z,19.00
2022-09-28T19:15:02.698Z,32.20
2022-09-28T19:22:48.108Z,30.60
2022-09-28T19:26:49.363Z,30.20
2022-09-28T19:30:58.039Z,33.60
2022-09-28T19:47:38.117Z,31.80
2022-09-28T19:51:51.560Z,33.70
2022-09-28T19:56:06.762Z,46.70
2022-09-28T20:00:16.518Z,41.60
2022-09-28T20:16:44.934Z,17.20
2022-09-28T20:20:53.312Z,18.70
2022-09-28T20:37:13.286Z,21.50
2022-09-28T20:41:14.489Z,21.50
2022-09-28T20:45:23.352Z,25.80
2022-09-28T21:14:02.396Z,25.60
2022-09-28T21:18:03.842Z,26.70
2022-09-28T21:26:30.722Z,29.00
2022-09-28T21:30:39.028Z,26.70
2022-09-28T21:51:03.090Z,29.40
2022-09-28T21:55:11.463Z,27.10
2022-09-28T22:11:14.887Z,29.70
2022-09-28T22:15:23.211Z,34.50
2022-09-28T22:19:31.630Z,33.20
2022-09-28T22:36:07.126Z,29.50
2022-09-28T22:39:52.002Z,33.90
2022-09-28T22:43:47.185Z,29.80
2022-09-28T22:47:55.605Z,25.90
2022-09-28T23:04:41.020Z,22.90
2022-09-28T23:08:49.504Z,25.50
2022-09-28T23:37:36.225Z,13.50
2022-09-28T23:41:44.444Z,15.10
2022-09-28T23:50:14.091Z,13.60
2022-09-28T23:54:22.520Z,13.10
